createdAt,value
2023-04-06T00:00:27.202Z,3.93
2023-04-06T00:05:31.775Z,3.73
2023-04-06T00:10:35.546Z,3.97
2023-04-06T00:15:40.562Z,4.80
2023-04-06T00:20:44.094Z,4.33
2023-04-06T00:25:49.060Z,3.80
2023-04-06T00:30:56.470Z,3.60
2023-04-06T00:36:00.448Z,3.47
2023-04-06T00:41:05.382Z,3.97
2023-04-06T00:46:10.456Z,3.73
2023-04-06T00:51:14.588Z,3.93
2023-04-06T00:56:18.108Z,4.37
2023-04-06T01:01:23.156Z,4.27
2023-04-06T01:06:26.549Z,4.13
2023-04-06T01:11:30.503Z,3.90
2023-04-06T01:16:36.692Z,4.10
2023-04-06T01:21:40.680Z,4.00
2023-04-06T01:26:46.549Z,4.50
2023-04-06T01:31:50.288Z,3.93
2023-04-06T01:36:53.787Z,4.20
2023-04-06T01:41:58.959Z,4.30
2023-04-06T01:47:02.485Z,4.20
2023-04-06T01:52:07.076Z,3.60
2023-04-06T01:57:13.101Z,3.73
2023-04-06T02:02:16.801Z,3.40
2023-04-06T02:07:20.685Z,3.80
2023-04-06T02:12:25.683Z,3.97
2023-04-06T02:17:29.250Z,3.53
2023-04-06T02:22:32.713Z,3.70
2023-04-06T02:27:37.901Z,3.53
2023-04-06T02:32:41.420Z,3.43
2023-04-06T02:37:44.909Z,3.73
2023-04-06T02:42:50.048Z,3.63
2023-04-06T02:47:53.409Z,4.27
2023-04-06T02:52:56.817Z,3.73
2023-04-06T02:58:01.541Z,4.10
2023-04-06T03:03:05.086Z,4.47
2023-04-06T03:08:08.528Z,4.23
2023-04-06T03:13:13.448Z,4.40
2023-04-06T03:18:16.942Z,4.27
2023-04-06T03:23:21.969Z,4.00
2023-04-06T03:28:26.791Z,4.17
2023-04-06T03:33:30.454Z,4.30
2023-04-06T03:38:33.834Z,4.53
2023-04-06T03:43:39.317Z,4.10
2023-04-06T03:48:42.900Z,4.37
2023-04-06T03:53:46.402Z,4.47
2023-04-06T03:58:51.973Z,4.20
2023-04-06T04:03:56.366Z,4.57
2023-04-06T04:09:00.025Z,4.60
2023-04-06T04:14:04.931Z,4.27
2023-04-06T04:19:08.589Z,4.47
2023-04-06T04:24:12.300Z,5.23
2023-04-06T04:29:17.824Z,4.33
2023-04-06T04:34:25.081Z,4.73
2023-04-06T04:39:28.454Z,5.13
2023-04-06T04:44:33.568Z,4.57
2023-04-06T04:49:37.031Z,4.70
2023-04-06T04:54:42.188Z,5.30
2023-04-06T04:59:47.580Z,4.70
2023-04-06T05:04:55.268Z,5.00
2023-04-06T05:09:59.092Z,4.93
2023-04-06T05:15:04.165Z,4.50
2023-04-06T05:20:09.320Z,4.57
2023-04-06T05:25:12.936Z,4.57
2023-04-06T05:30:18.017Z,4.87
2023-04-06T05:35:21.608Z,5.57
2023-04-06T05:40:25.761Z,4.80
2023-04-06T05:45:30.906Z,4.27
2023-04-06T05:50:34.237Z,4.27
2023-04-06T05:55:40.150Z,4.30
2023-04-06T06:00:47.208Z,4.10
2023-04-06T06:05:53.944Z,4.50
2023-04-06T06:10:58.232Z,4.17
2023-04-06T06:16:06.224Z,4.03
2023-04-06T06:21:10.351Z,3.80
2023-04-06T06:26:13.800Z,3.57
2023-04-06T06:31:21.643Z,3.60
2023-04-06T06:36:26.531Z,3.73
2023-04-06T06:41:30.004Z,2.97
2023-04-06T06:46:34.826Z,3.58
2023-04-06T06:51:38.914Z,3.03
2023-04-06T06:56:42.269Z,3.33
2023-04-06T07:01:47.356Z,3.30
2023-04-06T07:06:51.697Z,3.17
2023-04-06T07:11:58.263Z,3.38
2023-04-06T07:17:03.969Z,3.05
2023-04-06T07:22:10.566Z,2.90
2023-04-06T07:27:13.966Z,3.47
2023-04-06T07:32:21.289Z,2.88
2023-04-06T07:37:25.135Z,2.90
2023-04-06T07:42:28.484Z,2.90
2023-04-06T07:47:34.009Z,2.90
2023-04-06T07:52:38.448Z,3.28
2023-04-06T07:57:42.746Z,3.08
2023-04-06T08:02:47.844Z,3.08
2023-04-06T08:07:51.253Z,3.17
2023-04-06T08:12:55.084Z,3.00
2023-04-06T08:18:00.017Z,3.03
2023-04-06T08:23:03.534Z,3.10
2023-04-06T08:28:10.696Z,3.20
2023-04-06T08:33:15.891Z,2.78
2023-04-06T08:38:19.385Z,3.33
2023-04-06T08:43:25.057Z,3.05
2023-04-06T08:48:30.940Z,3.72
2023-04-06T08:53:34.404Z,3.78
2023-04-06T08:58:39.708Z,3.22
2023-04-06T09:03:45.663Z,3.70
2023-04-06T09:08:49.355Z,3.80
2023-04-06T09:13:53.991Z,4.00
2023-04-06T09:19:06.785Z,3.83
2023-04-06T09:24:11.409Z,3.80
2023-04-06T09:29:27.137Z,3.83
2023-04-06T09:34:32.078Z,4.47
2023-04-06T09:39:35.602Z,4.63
2023-04-06T09:44:39.066Z,4.82
2023-04-06T09:49:45.557Z,4.32
2023-04-06T09:54:52.799Z,3.70
2023-04-06T10:00:10.667Z,3.80
2023-04-06T10:05:22.788Z,3.28
2023-04-06T10:10:26.273Z,3.03
2023-04-06T10:15:35.691Z,2.80
2023-04-06T10:20:45.906Z,3.15
2023-04-06T10:25:57.254Z,3.65
2023-04-06T10:31:07.534Z,2.78
2023-04-06T10:36:20.923Z,2.95
2023-04-06T10:41:24.884Z,3.00
2023-04-06T10:46:32.415Z,2.90
2023-04-06T10:51:40.974Z,2.88
2023-04-06T10:56:46.425Z,3.15
2023-04-06T11:01:49.775Z,3.22
2023-04-06T11:06:57.465Z,3.17
2023-04-06T11:12:01.902Z,3.00
2023-04-06T11:17:06.036Z,3.20
2023-04-06T11:22:11.274Z,3.08
2023-04-06T11:27:16.169Z,2.50
2023-04-06T11:32:24.792Z,2.65
2023-04-06T11:37:30.395Z,2.70
2023-04-06T11:42:36.889Z,3.28
2023-04-06T11:47:41.736Z,2.83
2023-04-06T11:52:47.606Z,2.78
2023-04-06T11:57:52.893Z,3.22
2023-04-06T12:03:00.465Z,2.97
2023-04-06T12:08:05.494Z,3.13
2023-04-06T12:13:09.070Z,2.70
2023-04-06T12:18:12.849Z,2.70
2023-04-06T12:23:17.628Z,2.72
2023-04-06T12:28:28.004Z,2.50
2023-04-06T12:33:31.417Z,2.45
2023-04-06T12:38:39.240Z,2.22
2023-04-06T12:43:43.794Z,2.55
2023-04-06T12:48:48.967Z,3.00
2023-04-06T12:53:54.699Z,2.80
2023-04-06T12:59:00.473Z,3.10
2023-04-06T13:04:08.258Z,2.92
2023-04-06T13:09:16.587Z,2.80
2023-04-06T13:14:19.921Z,2.90
2023-04-06T13:19:26.903Z,3.35
2023-04-06T13:24:32.315Z,2.50
2023-04-06T13:29:37.142Z,3.03
2023-04-06T13:34:41.672Z,2.50
2023-04-06T13:39:46.422Z,2.58
2023-04-06T13:44:51.866Z,2.85
2023-04-06T13:49:57.315Z,3.17
2023-04-06T13:55:02.077Z,2.80
2023-04-06T14:00:08.134Z,2.90
2023-04-06T14:05:15.994Z,3.00
2023-04-06T14:10:22.315Z,2.67
2023-04-06T14:15:29.000Z,2.80
2023-04-06T14:20:34.304Z,2.97
2023-04-06T14:25:39.118Z,2.90
2023-04-06T14:30:45.721Z,2.73
2023-04-06T14:35:53.059Z,2.63
2023-04-06T14:40:57.920Z,2.70
2023-04-06T14:46:04.753Z,2.80
2023-04-06T14:51:08.525Z,2.83
2023-04-06T14:56:23.116Z,2.70
2023-04-06T15:01:26.926Z,5.77
2023-04-06T15:06:30.370Z,2.77
2023-04-06T15:11:35.418Z,2.73
2023-04-06T15:16:43.143Z,3.10
2023-04-06T15:21:46.714Z,2.70
2023-04-06T15:26:51.701Z,3.00
2023-04-06T15:31:57.045Z,3.10
2023-04-06T15:37:05.002Z,2.80
2023-04-06T15:42:12.345Z,2.63
2023-04-06T15:47:16.599Z,2.47
2023-04-06T15:52:23.093Z,3.00
2023-04-06T15:57:27.999Z,2.90
2023-04-06T16:02:35.851Z,2.77
2023-04-06T16:07:39.310Z,3.03
2023-04-06T16:12:44.218Z,2.90
2023-04-06T16:17:48.167Z,2.97
2023-04-06T16:22:51.532Z,2.80
2023-04-06T16:27:59.259Z,3.30
2023-04-06T16:33:02.837Z,3.30
2023-04-06T16:38:09.461Z,3.10
2023-04-06T16:43:15.380Z,3.30
2023-04-06T16:48:22.862Z,3.27
2023-04-06T16:53:31.977Z,2.93
2023-04-06T16:58:38.058Z,3.17
2023-04-06T17:03:44.391Z,3.53
2023-04-06T17:08:48.811Z,3.43
2023-04-06T17:13:56.613Z,3.77
2023-04-06T17:19:00.365Z,3.50
2023-04-06T17:24:08.152Z,3.90
2023-04-06T17:29:12.804Z,3.37
2023-04-06T17:34:19.698Z,4.57
2023-04-06T17:39:22.959Z,4.23
2023-04-06T17:44:32.058Z,4.10
2023-04-06T17:49:35.693Z,3.90
2023-04-06T17:54:39.306Z,4.13
2023-04-06T17:59:46.015Z,4.70
2023-04-06T18:04:54.042Z,4.13
2023-04-06T18:09:57.551Z,4.53
2023-04-06T18:15:02.339Z,4.10
2023-04-06T18:20:06.223Z,4.10
2023-04-06T18:25:11.392Z,3.83
2023-04-06T18:30:20.394Z,4.43
2023-04-06T18:35:24.494Z,4.70
2023-04-06T18:40:38.240Z,5.30
2023-04-06T18:45:48.054Z,5.43
2023-04-06T18:50:55.683Z,5.23
2023-04-06T18:55:59.246Z,5.27
2023-04-06T19:01:04.064Z,5.70
2023-04-06T19:06:08.779Z,5.13
2023-04-06T19:11:12.113Z,4.90
2023-04-06T19:16:17.323Z,5.87
2023-04-06T19:21:34.638Z,6.20
2023-04-06T19:26:38.041Z,6.07
2023-04-06T19:31:42.905Z,6.17
2023-04-06T19:36:46.336Z,7.80
2023-04-06T19:41:49.728Z,9.00
2023-04-06T19:46:54.774Z,8.80
2023-04-06T19:51:58.912Z,10.00
2023-04-06T19:57:02.616Z,9.17
2023-04-06T20:02:10.834Z,9.27
2023-04-06T20:07:14.489Z,9.30
2023-04-06T20:12:17.708Z,9.00
2023-04-06T20:17:23.949Z,9.87
2023-04-06T20:22:27.535Z,8.50
2023-04-06T20:27:31.127Z,7.50
2023-04-06T20:32:35.878Z,7.63
2023-04-06T20:37:39.257Z,7.70
2023-04-06T20:42:42.641Z,7.03
2023-04-06T20:47:48.426Z,6.63
2023-04-06T20:52:51.721Z,6.73
2023-04-06T20:57:54.993Z,6.57
2023-04-06T21:02:59.899Z,6.57
2023-04-06T21:08:04.515Z,6.90
2023-04-06T21:13:07.836Z,6.80
2023-04-06T21:18:12.965Z,7.23
2023-04-06T21:23:17.744Z,7.20
2023-04-06T21:28:20.929Z,8.00
2023-04-06T21:33:25.637Z,8.30
2023-04-06T21:38:30.765Z,7.40
2023-04-06T21:43:33.999Z,7.63
2023-04-06T21:48:38.657Z,7.30
2023-04-06T21:53:42.323Z,7.07
2023-04-06T21:58:45.565Z,7.07
2023-04-06T22:03:50.515Z,7.27
2023-04-06T22:08:54.946Z,7.97
2023-04-06T22:14:01.922Z,8.13
2023-04-06T22:19:06.672Z,8.13
2023-04-06T22:24:09.958Z,8.73
2023-04-06T22:29:13.192Z,8.67
2023-04-06T22:34:18.269Z,8.63
2023-04-06T22:39:21.910Z,8.33
2023-04-06T22:44:25.071Z,8.50
2023-04-06T22:49:31.049Z,8.20
2023-04-06T22:54:34.387Z,7.47
2023-04-06T22:59:37.960Z,7.23
2023-04-06T23:04:42.637Z,6.93
2023-04-06T23:09:45.826Z,6.70
2023-04-06T23:14:49.191Z,6.97
2023-04-06T23:19:53.916Z,7.27
2023-04-06T23:24:57.415Z,7.00
2023-04-06T23:30:01.075Z,6.63
2023-04-06T23:35:06.442Z,6.50
2023-04-06T23:40:10.521Z,7.03
2023-04-06T23:45:14.846Z,7.37
2023-04-06T23:50:19.901Z,7.13
2023-04-06T23:55:23.199Z,6.93
